Terminal Aerodrome Forecast
Issued by NWS Jackson, MS

Home | Current Version | Previous Version | Text Only | Print | Product List | Glossary On
Versions: 1 2 3 4 5 6 7 8 9 10 11 12 13
000
FTUS44 KJAN 022320
TAFHBG
TAF
KHBG 022320Z 0300/0324 VRB03KT P6SM SCT070 BKN150
     FM031000 00000KT 4SM BR SCT070 BKN150
     FM031330 VRB03KT P6SM FEW040 BKN070=

USA.gov is the U.S. government's official web portal to all federal, state and local government web resources and services.